Time;durP1;ratioP1;P1;durP2;ratioP2;P2;SDS_P1;SDS_P2;PMS_P1;PMS_P2;Temp;Humidity;BMP_temperature;BMP_pressure;BME280_temperature;BME280_humidity;BME280_pressure;Samples;Min_cycle;Max_cycle;Signal;HPM_P1;HPM_P2
2021/11/27 00:00:10;;;;;;;14.05;9.48;;;;;;;3.42;100.00;98734.50;10159986;28;20046;-69
2021/11/27 00:05:09;;;;;;;16.00;10.45;;;;;;;3.38;100.00;98720.03;10161390;28;20043;-70
2021/11/27 00:10:10;;;;;;;14.55;9.00;;;;;;;3.36;100.00;98711.44;10155176;28;20080;-70
2021/11/27 00:15:08;;;;;;;15.73;9.90;;;;;;;3.41;100.00;98708.56;10162298;28;20050;-71
2021/11/27 00:20:09;;;;;;;16.23;9.43;;;;;;;3.47;100.00;98712.72;10148670;28;20109;-71
2021/11/27 00:25:07;;;;;;;15.77;9.15;;;;;;;3.39;100.00;98708.13;10156695;28;20097;-70
2021/11/27 00:30:06;;;;;;;16.20;9.57;;;;;;;3.44;100.00;98707.94;10158885;28;20759;-70
2021/11/27 00:35:04;;;;;;;15.90;9.95;;;;;;;3.49;100.00;98707.78;10159962;28;20047;-70
2021/11/27 00:40:03;;;;;;;16.48;9.73;;;;;;;3.50;100.00;98705.88;10146988;28;20113;-71
2021/11/27 00:45:00;;;;;;;17.33;9.50;;;;;;;3.49;100.00;98699.69;10143530;28;20108;-68
2021/11/27 00:49:56;;;;;;;16.30;9.38;;;;;;;3.53;100.00;98687.13;10143968;28;20702;-71
2021/11/27 00:54:53;;;;;;;14.63;9.32;;;;;;;3.50;100.00;98679.63;10145914;28;20042;-68
2021/11/27 00:59:49;;;;;;;15.15;9.85;;;;;;;3.44;100.00;98682.84;10154183;28;20125;-71
2021/11/27 01:04:46;;;;;;;15.15;9.30;;;;;;;3.32;100.00;98689.69;10151478;28;20077;-70
2021/11/27 01:09:43;;;;;;;15.05;9.05;;;;;;;3.44;100.00;98694.44;10138575;28;20042;-69
2021/11/27 01:14:39;;;;;;;13.65;8.85;;;;;;;3.47;100.00;98683.00;10139643;28;20464;-69
2021/11/27 01:19:37;;;;;;;16.25;10.02;;;;;;;3.49;100.00;98678.06;10156568;28;20058;-69
2021/11/27 01:24:34;;;;;;;16.48;9.43;;;;;;;3.53;100.00;98673.63;10145690;28;20039;-70
2021/11/27 01:29:31;;;;;;;14.13;8.93;;;;;;;3.56;100.00;98677.56;10142785;28;20108;-69
2021/11/27 01:34:28;;;;;;;14.57;9.63;;;;;;;3.52;100.00;98672.00;10142925;28;20504;-69
2021/11/27 01:39:24;;;;;;;16.20;9.10;;;;;;;3.57;100.00;98679.97;10147694;28;20060;-69
2021/11/27 01:44:21;;;;;;;15.18;10.05;;;;;;;3.59;100.00;98683.13;10145791;28;20520;-69
2021/11/27 01:49:17;;;;;;;18.08;10.20;;;;;;;3.61;100.00;98673.91;10142674;28;20054;-70
2021/11/27 01:54:15;;;;;;;15.82;9.27;;;;;;;3.59;100.00;98677.72;10152574;28;20415;-69
2021/11/27 01:59:12;;;;;;;14.40;8.93;;;;;;;3.54;100.00;98674.41;10147799;28;20501;-70
2021/11/27 02:04:10;;;;;;;19.13;10.77;;;;;;;3.58;100.00;98676.13;10173377;28;20049;-70
2021/11/27 02:09:12;;;;;;;15.20;9.50;;;;;;;3.61;100.00;98674.69;10158820;28;20542;-69
2021/11/27 02:14:09;;;;;;;16.60;10.20;;;;;;;3.67;100.00;98678.03;10159154;28;20049;-68
2021/11/27 02:19:08;;;;;;;16.20;9.90;;;;;;;3.67;100.00;98678.03;10155941;28;20106;-68
2021/11/27 02:24:05;;;;;;;17.52;10.30;;;;;;;3.70;100.00;98677.41;10164072;28;20053;-67
2021/11/27 02:29:12;;;;;;;18.60;10.02;;;;;;;3.75;100.00;98685.31;10154080;28;20505;-68
2021/11/27 02:34:09;;;;;;;15.80;9.85;;;;;;;3.66;100.00;98676.44;10160832;28;20046;-68
2021/11/27 02:39:09;;;;;;;15.95;10.77;;;;;;;3.72;100.00;98677.88;10167851;28;20077;-67
2021/11/27 02:44:08;;;;;;;19.83;10.60;;;;;;;3.61;100.00;98673.91;10147676;28;20054;-67
2021/11/27 02:49:06;;;;;;;17.45;11.52;;;;;;;3.66;100.00;98671.03;10151741;28;20069;-67
2021/11/27 02:54:03;;;;;;;22.67;11.35;;;;;;;3.55;100.00;98665.97;10147089;28;20343;-66
2021/11/27 02:59:16;;;;;;;20.65;12.45;;;;;;;3.65;100.00;98669.47;10134766;28;20050;-66
2021/11/27 03:04:13;;;;;;;22.90;12.27;;;;;;;3.58;100.00;98670.75;10154963;28;20042;-68
2021/11/27 03:09:13;;;;;;;20.02;12.60;;;;;;;3.48;100.00;98664.88;10156684;28;20070;-68
2021/11/27 03:14:09;;;;;;;21.80;12.35;;;;;;;3.55;100.00;98660.56;10151045;28;20048;-68
2021/11/27 03:19:06;;;;;;;19.55;13.13;;;;;;;3.55;100.00;98670.56;10159469;28;20045;-68
2021/11/27 03:24:03;;;;;;;19.40;12.18;;;;;;;3.44;100.00;98675.53;10146229;28;20042;-66
2021/11/27 03:29:00;;;;;;;22.83;12.98;;;;;;;3.36;100.00;98674.44;10151909;28;20142;-67
2021/11/27 03:33:56;;;;;;;22.30;13.38;;;;;;;3.55;100.00;98676.78;10158232;28;20052;-66
2021/11/27 03:38:53;;;;;;;24.05;13.77;;;;;;;3.41;100.00;98686.97;10167566;28;20097;-66
2021/11/27 03:43:50;;;;;;;22.77;12.45;;;;;;;3.47;100.00;98687.59;10148550;28;20046;-67
2021/11/27 03:48:47;;;;;;;21.08;12.65;;;;;;;3.49;100.00;98688.88;10150619;28;20042;-66
2021/11/27 03:53:45;;;;;;;23.00;13.15;;;;;;;3.24;100.00;98684.28;10162803;28;20122;-66
2021/11/27 03:58:41;;;;;;;22.02;12.55;;;;;;;3.43;100.00;98684.72;10144155;28;20076;-67
2021/11/27 04:03:40;;;;;;;25.27;14.95;;;;;;;3.40;100.00;98690.78;10154561;28;20042;-67
2021/11/27 04:08:37;;;;;;;24.55;15.43;;;;;;;3.44;100.00;98689.03;10159672;28;20045;-68
2021/11/27 04:13:34;;;;;;;25.50;15.07;;;;;;;3.34;100.00;98692.06;10156342;28;20042;-68
2021/11/27 04:18:31;;;;;;;27.00;14.68;;;;;;;3.39;100.00;98689.22;10157556;28;20050;-68
2021/11/27 04:23:28;;;;;;;26.50;16.25;;;;;;;3.44;100.00;98697.16;10156920;28;20054;-68
2021/11/27 04:28:24;;;;;;;27.58;16.30;;;;;;;3.45;100.00;98698.72;10157267;28;20069;-68
2021/11/27 04:33:21;;;;;;;26.05;15.85;;;;;;;3.48;100.00;98703.50;10159066;28;20043;-69
2021/11/27 04:38:18;;;;;;;23.63;15.23;;;;;;;3.36;100.00;98711.44;10146894;28;20563;-68
2021/11/27 04:43:16;;;;;;;28.13;15.77;;;;;;;3.21;100.00;98706.53;10151447;28;20053;-68
2021/11/27 04:48:13;;;;;;;29.30;17.42;;;;;;;3.25;100.00;98710.16;10152683;28;20745;-68
2021/11/27 04:53:10;;;;;;;23.48;14.85;;;;;;;3.20;100.00;98710.34;10147966;28;20523;-68
2021/11/27 04:58:07;;;;;;;26.25;15.85;;;;;;;3.06;100.00;98708.56;10149625;28;20600;-69
2021/11/27 05:03:04;;;;;;;30.33;15.82;;;;;;;3.07;100.00;98720.97;10153383;28;20046;-69
2021/11/27 05:08:00;;;;;;;34.40;18.98;;;;;;;3.09;100.00;98717.97;10153368;28;20425;-69
2021/11/27 05:12:57;;;;;;;28.20;16.53;;;;;;;3.03;100.00;98722.72;10149703;28;20123;-69
2021/11/27 05:17:53;;;;;;;32.13;17.30;;;;;;;3.07;100.00;98720.19;10147608;28;20865;-69
2021/11/27 05:22:50;;;;;;;31.70;18.15;;;;;;;2.88;100.00;98734.78;10146350;28;20540;-69
2021/11/27 05:27:47;;;;;;;26.90;16.83;;;;;;;2.94;100.00;98738.91;10156465;28;20065;-68
2021/11/27 05:33:07;;;;;;;32.88;17.48;;;;;;;2.76;100.00;98739.97;10158493;28;20070;-68
2021/11/27 05:38:03;;;;;;;31.38;18.15;;;;;;;2.84;100.00;98739.22;10160243;28;20066;-69
2021/11/27 05:43:00;;;;;;;36.00;18.98;;;;;;;2.86;100.00;98750.50;10163941;28;20047;-68
2021/11/27 05:47:59;;;;;;;31.17;16.45;;;;;;;2.92;100.00;98745.72;10154562;28;20073;-68
2021/11/27 05:52:55;;;;;;;32.47;17.40;;;;;;;2.86;100.00;98741.59;10168394;28;20050;-69
2021/11/27 05:57:52;;;;;;;31.33;17.67;;;;;;;2.84;100.00;98754.63;10159994;28;20187;-69
2021/11/27 06:02:48;;;;;;;29.63;17.55;;;;;;;2.93;100.00;98755.44;10160380;28;20046;-69
2021/11/27 06:07:45;;;;;;;33.15;18.02;;;;;;;2.86;100.00;98757.81;10157021;28;20046;-68
2021/11/27 06:12:41;;;;;;;32.97;19.17;;;;;;;2.82;100.00;98760.31;10167648;28;20456;-68
2021/11/27 06:17:38;;;;;;;32.22;18.13;;;;;;;2.85;100.00;98756.19;10151728;28;20567;-68
2021/11/27 06:22:34;;;;;;;34.38;18.83;;;;;;;2.76;100.00;98768.88;10157973;28;20070;-68
2021/11/27 06:27:51;;;;;;;29.50;17.90;;;;;;;2.86;100.00;98768.59;10155167;28;20141;-69
2021/11/27 06:32:48;;;;;;;36.03;18.70;;;;;;;2.76;100.00;98779.66;10162141;28;20056;-69
2021/11/27 06:37:44;;;;;;;38.42;18.90;;;;;;;2.92;100.00;98783.50;10145264;28;20046;-67
2021/11/27 06:42:41;;;;;;;38.60;18.67;;;;;;;2.99;100.00;98789.25;10163574;28;20086;-67
2021/11/27 06:47:38;;;;;;;27.85;16.73;;;;;;;2.93;100.00;98795.91;10151775;28;20042;-67
2021/11/27 06:52:34;;;;;;;35.05;18.02;;;;;;;2.91;100.00;98798.13;10143746;28;20050;-67
2021/11/27 06:57:31;;;;;;;30.70;17.25;;;;;;;2.97;100.00;98806.88;10154527;28;20528;-68
2021/11/27 07:02:27;;;;;;;34.55;19.35;;;;;;;2.97;100.00;98818.50;10163454;28;20137;-68
2021/11/27 07:07:24;;;;;;;35.25;18.42;;;;;;;3.00;100.00;98827.88;10163622;28;20053;-68
2021/11/27 07:12:20;;;;;;;30.65;17.67;;;;;;;3.05;100.00;98825.00;10159791;28;20085;-68
2021/11/27 07:17:17;;;;;;;35.88;19.27;;;;;;;2.97;100.00;98840.09;10148065;28;20050;-68
2021/11/27 07:22:13;;;;;;;32.90;17.75;;;;;;;2.97;100.00;98840.09;10134759;28;20117;-68
2021/11/27 07:27:10;;;;;;;30.92;17.30;;;;;;;3.06;100.00;98838.19;10132231;28;20116;-67
2021/11/27 07:32:06;;;;;;;35.03;18.60;;;;;;;3.03;100.00;98838.81;10139847;28;20042;-67
2021/11/27 07:37:03;;;;;;;28.20;16.10;;;;;;;3.10;100.00;98839.16;10124804;28;20100;-68
2021/11/27 07:42:00;;;;;;;37.03;19.75;;;;;;;3.20;100.00;98837.25;10124137;28;20050;-68
2021/11/27 07:47:02;;;;;;;31.67;17.60;;;;;;;3.22;100.00;98848.56;10129832;28;20043;-68
2021/11/27 07:51:59;;;;;;;37.42;17.95;;;;;;;3.23;100.00;98859.06;10151492;28;20065;-68
2021/11/27 07:56:56;;;;;;;32.30;18.00;;;;;;;3.20;100.00;98853.47;10131639;28;20123;-69
2021/11/27 08:01:52;;;;;;;32.75;18.27;;;;;;;3.30;100.00;98864.00;10132347;28;20116;-69
2021/11/27 08:06:49;;;;;;;31.10;18.85;;;;;;;3.31;100.00;98870.97;10114528;28;20393;-68
2021/11/27 08:11:46;;;;;;;33.15;20.17;;;;;;;3.35;100.00;98866.53;10115766;28;20105;-68
2021/11/27 08:16:42;;;;;;;36.88;19.38;;;;;;;3.15;100.00;98868.69;10128332;28;20129;-66
2021/11/27 08:21:38;;;;;;;26.77;16.10;;;;;;;3.36;100.00;98878.94;10132808;28;20104;-67
2021/11/27 08:26:35;;;;;;;33.80;18.75;;;;;;;3.44;100.00;98880.88;10135755;28;20774;-66
2021/11/27 08:31:32;;;;;;;30.25;17.90;;;;;;;3.58;100.00;98881.53;10117162;28;20085;-68
2021/11/27 08:36:28;;;;;;;29.70;17.75;;;;;;;3.69;100.00;98886.59;10125555;28;20121;-68
2021/11/27 08:41:25;;;;;;;32.70;19.10;;;;;;;3.57;100.00;98890.75;10129748;28;20129;-67
2021/11/27 08:46:21;;;;;;;29.17;16.92;;;;;;;3.70;100.00;98893.63;10125387;28;20066;-67
2021/11/27 08:51:18;;;;;;;29.90;17.33;;;;;;;3.84;100.00;98888.84;10124139;28;20043;-68
2021/11/27 08:56:15;;;;;;;28.55;16.10;;;;;;;3.76;100.00;98893.16;10137764;28;20773;-68
2021/11/27 09:01:12;;;;;;;33.25;19.17;;;;;;;3.91;100.00;98893.78;10139575;28;20038;-67
2021/11/27 09:06:09;;;;;;;30.27;17.98;;;;;;;4.03;100.00;98901.25;10132939;28;20042;-68
2021/11/27 09:11:08;;;;;;;31.20;17.63;;;;;;;4.03;100.00;98906.69;10134548;28;20081;-68
2021/11/27 09:16:06;;;;;;;32.47;17.80;;;;;;;3.86;100.00;98908.25;10144354;28;20053;-67
2021/11/27 09:21:22;;;;;;;29.67;16.08;;;;;;;4.03;100.00;98917.50;10138829;28;20043;-68
2021/11/27 09:26:19;;;;;;;28.50;17.00;;;;;;;4.01;100.00;98915.09;10130974;28;20608;-68
2021/11/27 09:31:15;;;;;;;29.50;19.02;;;;;;;4.07;100.00;98918.47;10164195;28;20046;-68
2021/11/27 09:36:15;;;;;;;30.00;17.30;;;;;;;4.07;100.00;98921.16;10135839;28;20533;-68
2021/11/27 09:41:29;;;;;;;29.90;17.98;;;;;;;4.04;100.00;98929.88;10129071;28;20065;-68
2021/11/27 09:46:27;;;;;;;30.80;18.73;;;;;;;3.99;100.00;98931.66;10140855;28;20223;-68
2021/11/27 09:51:26;;;;;;;29.65;17.90;;;;;;;3.96;100.00;98934.97;10141686;28;20075;-68
2021/11/27 09:56:24;;;;;;;31.20;16.92;;;;;;;3.99;100.00;98945.19;10134127;28;20050;-66
2021/11/27 10:01:28;;;;;;;29.88;18.10;;;;;;;3.92;100.00;98934.03;10139253;28;20113;-68
2021/11/27 10:06:26;;;;;;;29.65;17.15;;;;;;;3.81;100.00;98943.56;10148927;28;20129;-68
2021/11/27 10:11:22;;;;;;;30.00;18.75;;;;;;;3.93;100.00;98941.03;10136390;28;20047;-65
2021/11/27 10:16:19;;;;;;;34.78;19.27;;;;;;;3.81;100.00;98940.88;10138114;28;20199;-65
2021/11/27 10:21:22;;;;;;;29.98;17.58;;;;;;;3.88;100.00;98941.19;10128705;28;20158;-66
2021/11/27 10:26:37;;;;;;;28.10;16.90;;;;;;;3.99;100.00;98944.38;10131845;28;20473;-65
2021/11/27 10:31:33;;;;;;;30.02;16.75;;;;;;;3.94;100.00;98948.03;10122210;28;20474;-68
2021/11/27 10:36:32;;;;;;;33.80;17.67;;;;;;;3.80;100.00;98950.06;10123315;28;20047;-68
2021/11/27 10:41:34;;;;;;;29.20;16.67;;;;;;;3.96;100.00;98951.19;10148068;28;20565;-68
2021/11/27 10:46:32;;;;;;;;;;;;;;;3.97;100.00;98947.41;10139301;28;20089;-68
2021/11/27 10:51:31;;;;;;;29.20;17.40;;;;;;;3.94;100.00;98942.59;10136299;28;19926;-67
2021/11/27 10:56:45;;;;;;;29.08;16.25;;;;;;;3.99;100.00;98945.19;10126385;28;20129;-68
2021/11/27 11:02:05;;;;;;;28.52;17.15;;;;;;;4.06;100.00;98943.91;10133352;28;20038;-68
2021/11/27 11:07:19;;;;;;;29.33;17.73;;;;;;;4.11;100.00;98946.47;10146975;28;20066;-67
2021/11/27 11:12:16;;;;;;;30.02;16.63;;;;;;;4.03;100.00;98949.94;10142161;28;20047;-67
2021/11/27 11:17:13;;;;;;;27.38;16.77;;;;;;;4.15;100.00;98956.31;10121162;28;20092;-69
2021/11/27 11:22:13;;;;;;;27.17;17.15;;;;;;;4.05;100.00;98951.22;10131065;28;20229;-67
2021/11/27 11:27:11;;;;;;;26.20;15.77;;;;;;;4.04;100.00;98960.47;10127985;28;20178;-67
2021/11/27 11:32:20;;;;;;;30.90;17.48;;;;;;;3.89;100.00;98956.28;10134995;28;20566;-68
2021/11/27 11:37:18;;;;;;;27.95;16.02;;;;;;;3.96;100.00;98964.72;10124510;28;20043;-66
2021/11/27 11:42:15;;;;;;;28.27;17.38;;;;;;;3.86;100.00;98973.16;10129725;28;20054;-66
2021/11/27 11:47:12;;;;;;;26.48;14.95;;;;;;;3.64;100.00;98975.97;10121400;28;20446;-67
2021/11/27 11:52:20;;;;;;;29.48;16.73;;;;;;;3.71;100.00;98971.69;10123004;28;20465;-68
2021/11/27 11:57:16;;;;;;;26.48;16.30;;;;;;;3.73;100.00;98979.47;10119571;28;20050;-68
2021/11/27 12:02:27;;;;;;;25.77;14.82;;;;;;;3.68;100.00;98974.22;10124372;28;20522;-69
2021/11/27 12:07:47;;;;;;;28.25;14.82;;;;;;;3.59;100.00;98982.31;10140764;28;20042;-70
2021/11/27 12:13:09;;;;;;;25.98;14.98;;;;;;;3.56;100.00;98991.84;10137088;28;20137;-68
2021/11/27 12:18:10;;;;;;;24.33;14.45;;;;;;;3.47;100.00;98993.72;10130585;28;20134;-69
2021/11/27 12:23:37;;;;;;;21.42;13.68;;;;;;;3.30;100.00;98988.25;10147766;28;20046;-67
2021/11/27 12:28:37;;;;;;;24.88;14.85;;;;;;;3.36;100.00;98992.41;10153958;28;20052;-67
2021/11/27 12:33:59;;;;;;;22.67;14.15;;;;;;;3.33;100.00;98993.03;10158568;28;20728;-69
2021/11/27 12:39:02;;;;;;;23.60;13.88;;;;;;;3.41;100.00;98994.94;10166102;28;20530;-68
2021/11/27 12:44:20;;;;;;;25.08;14.85;;;;;;;3.31;100.00;98995.25;10148787;28;20061;-67
2021/11/27 12:49:32;;;;;;;26.42;14.80;;;;;;;3.27;100.00;99005.06;10144401;28;20049;-69
2021/11/27 12:54:35;;;;;;;26.15;13.60;;;;;;;3.08;100.00;99002.59;10151083;28;20569;-65
2021/11/27 12:59:33;;;;;;;21.00;13.05;;;;;;;3.15;100.00;98998.34;10138557;28;20776;-68
2021/11/27 13:04:36;;;;;;;19.30;11.82;;;;;;;3.17;100.00;99006.94;10149040;28;20096;-68
2021/11/27 13:09:32;;;;;;;;;;;;;;;3.15;100.00;99009.13;10147635;28;20058;-68
2021/11/27 13:14:32;;;;;;;20.30;12.70;;;;;;;3.15;100.00;99008.34;10137868;28;20012;-69
2021/11/27 13:19:35;;;;;;;17.52;11.95;;;;;;;3.25;100.00;99012.69;10145350;28;20072;-69
2021/11/27 13:24:36;;;;;;;19.20;12.32;;;;;;;3.17;100.00;99012.31;10152231;28;20418;-68
2021/11/27 13:29:32;;;;;;;20.23;12.27;;;;;;;3.23;100.00;99015.72;10159108;28;20054;-68
2021/11/27 13:34:29;;;;;;;17.70;11.32;;;;;;;3.17;100.00;99025.84;10149226;28;20410;-67
2021/11/27 13:39:39;;;;;;;16.83;11.50;;;;;;;3.26;100.00;99027.78;10158020;28;20506;-68
2021/11/27 13:45:02;;;;;;;17.23;10.60;;;;;;;3.17;100.00;99039.34;10145004;28;20164;-67
2021/11/27 13:50:04;;;;;;;17.00;11.68;;;;;;;3.24;100.00;99043.50;10130847;28;20698;-67
2021/11/27 13:55:17;;;;;;;17.42;11.05;;;;;;;3.16;100.00;99043.16;10122471;28;20076;-70
2021/11/27 14:00:19;;;;;;;18.23;11.65;;;;;;;3.18;100.00;99034.75;10147720;28;20047;-67
2021/11/27 14:05:25;;;;;;;20.38;12.90;;;;;;;3.13;100.00;99038.38;10124969;28;20043;-68
2021/11/27 14:10:26;;;;;;;21.65;13.75;;;;;;;2.97;100.00;99047.97;10128319;28;20059;-69
2021/11/27 14:15:27;;;;;;;19.52;12.60;;;;;;;2.87;100.00;99045.50;10141781;28;20038;-69
2021/11/27 14:20:35;;;;;;;22.40;13.30;;;;;;;2.77;100.00;99051.16;10124414;28;20050;-71
2021/11/27 14:25:36;;;;;;;23.30;14.13;;;;;;;2.82;100.00;99049.13;10138805;28;20054;-70
2021/11/27 14:30:44;;;;;;;23.55;14.70;;;;;;;2.84;100.00;99056.94;10121747;28;20066;-68
2021/11/27 14:35:41;;;;;;;23.38;14.75;;;;;;;2.84;100.00;99052.31;10137244;28;20498;-71
2021/11/27 14:40:58;;;;;;;24.70;16.77;;;;;;;2.87;100.00;99056.31;10127625;28;20057;-68
2021/11/27 14:45:56;;;;;;;25.70;16.33;;;;;;;2.86;100.00;99068.22;10135192;28;20042;-68
2021/11/27 14:50:53;;;;;;;28.13;16.25;;;;;;;2.67;100.00;99071.06;10133451;28;20133;-68
2021/11/27 14:55:50;;;;;;;27.65;16.85;;;;;;;2.85;100.00;99070.09;10136471;28;20118;-72
2021/11/27 15:00:46;;;;;;;23.80;15.93;;;;;;;2.87;100.00;99072.50;10129453;28;20057;-70
2021/11/27 15:05:43;;;;;;;29.02;15.90;;;;;;;2.89;100.00;99076.50;10133630;28;20053;-69
2021/11/27 15:10:42;;;;;;;27.35;17.38;;;;;;;2.86;100.00;99076.31;10132123;28;20057;-69
2021/11/27 15:15:38;;;;;;;28.33;17.02;;;;;;;2.91;100.00;99078.88;10134479;28;20104;-69
2021/11/27 15:20:36;;;;;;;29.55;16.80;;;;;;;2.87;100.00;99077.91;10143890;28;20093;-68
2021/11/27 15:25:35;;;;;;;27.67;17.60;;;;;;;2.98;100.00;99087.34;10140740;28;20042;-68
2021/11/27 15:30:34;;;;;;;30.40;17.52;;;;;;;2.99;100.00;99091.63;10133523;28;20796;-68
2021/11/27 15:35:32;;;;;;;30.17;16.55;;;;;;;3.07;100.00;99099.00;10138142;28;20614;-69
2021/11/27 15:40:29;;;;;;;28.13;16.58;;;;;;;3.10;100.00;99098.38;10135171;28;20084;-68
2021/11/27 15:45:28;;;;;;;27.67;17.02;;;;;;;3.08;100.00;99106.00;10139293;28;20050;-68
2021/11/27 15:50:26;;;;;;;30.13;16.88;;;;;;;3.07;100.00;99109.03;10143232;28;20042;-72
2021/11/27 15:55:22;;;;;;;24.88;15.70;;;;;;;3.14;100.00;99110.19;10127846;28;20408;-68
2021/11/27 16:00:25;;;;;;;26.77;16.80;;;;;;;3.14;100.00;99110.19;10137059;28;20689;-72
2021/11/27 16:05:22;;;;;;;29.60;17.58;;;;;;;3.19;100.00;99116.56;10138586;28;20080;-68
2021/11/27 16:10:19;;;;;;;28.73;17.83;;;;;;;3.21;100.00;99119.75;10121251;28;20050;-68
2021/11/27 16:15:16;;;;;;;29.35;17.48;;;;;;;3.16;100.00;99118.78;10130964;28;20498;-67
2021/11/27 16:20:13;;;;;;;30.17;17.42;;;;;;;3.30;100.00;99113.31;10140726;28;20469;-69
2021/11/27 16:25:11;;;;;;;28.63;17.50;;;;;;;3.32;100.00;99115.72;10141893;28;20091;-70
2021/11/27 16:30:09;;;;;;;30.25;18.98;;;;;;;3.32;100.00;99123.81;10136901;28;20137;-68
2021/11/27 16:35:10;;;;;;;31.58;18.60;;;;;;;3.37;100.00;99129.09;10140309;28;20053;-68
2021/11/27 16:40:08;;;;;;;30.80;18.40;;;;;;;3.40;100.00;99133.06;10134480;28;20054;-71
2021/11/27 16:45:07;;;;;;;29.98;18.42;;;;;;;3.45;100.00;99135.63;10132604;28;20049;-70
2021/11/27 16:50:05;;;;;;;32.35;18.92;;;;;;;3.42;100.00;99139.75;10133882;28;20050;-68
2021/11/27 16:55:01;;;;;;;33.53;19.00;;;;;;;3.47;100.00;99144.25;10125140;28;20084;-67
2021/11/27 16:59:58;;;;;;;32.20;19.58;;;;;;;3.49;100.00;99137.41;10125392;28;20056;-68
2021/11/27 17:04:55;;;;;;;32.65;20.15;;;;;;;3.50;100.00;99139.00;10117658;28;20042;-68
2021/11/27 17:09:52;;;;;;;33.17;19.95;;;;;;;3.51;100.00;99146.00;10124234;28;20590;-67
2021/11/27 17:14:49;;;;;;;34.15;19.85;;;;;;;3.62;100.00;99151.16;10124366;28;20077;-72
2021/11/27 17:19:45;;;;;;;34.72;19.88;;;;;;;3.67;100.00;99153.75;10122804;28;20897;-72
2021/11/27 17:24:42;;;;;;;32.55;19.73;;;;;;;3.70;100.00;99158.53;10123673;28;20042;-68
2021/11/27 17:29:39;;;;;;;34.83;21.23;;;;;;;3.72;100.00;99156.31;10120388;28;20074;-69
2021/11/27 17:34:36;;;;;;;34.90;19.55;;;;;;;3.73;100.00;99153.28;10126177;28;20046;-71
2021/11/27 17:39:36;;;;;;;33.60;19.92;;;;;;;3.77;100.00;99164.28;10133660;28;20086;-69
2021/11/27 17:44:33;;;;;;;36.47;21.30;;;;;;;3.79;100.00;99167.47;10125718;28;20042;-71
2021/11/27 17:49:30;;;;;;;33.30;20.40;;;;;;;3.80;100.00;99174.47;10127501;28;20046;-69
2021/11/27 17:54:27;;;;;;;38.40;21.23;;;;;;;3.80;100.00;99177.16;10108749;28;20039;-69
2021/11/27 17:59:23;;;;;;;37.58;23.27;;;;;;;3.80;100.00;99174.47;10122103;28;20042;-69
2021/11/27 18:04:21;;;;;;;37.00;23.58;;;;;;;3.83;100.00;99184.69;10114727;28;20061;-67
2021/11/27 18:09:18;;;;;;;38.00;22.20;;;;;;;3.81;100.00;99186.88;10135832;28;20537;-70
2021/11/27 18:14:15;;;;;;;37.10;23.48;;;;;;;3.84;100.00;99191.66;10118894;28;20074;-70
2021/11/27 18:19:12;;;;;;;39.00;22.00;;;;;;;3.84;100.00;99191.66;10664735;22;20074;-70
2021/11/27 18:24:25;;;;;;;34.30;22.35;;;;;;;3.86;100.00;99194.88;10131120;28;20104;-70
2021/11/27 18:29:21;;;;;;;34.22;21.15;;;;;;;3.84;100.00;99201.69;10119307;28;20058;-70
2021/11/27 18:34:18;;;;;;;40.42;24.20;;;;;;;3.75;100.00;99198.94;10071924;28;20059;-69
2021/11/27 18:39:16;;;;;;;37.85;23.65;;;;;;;3.79;100.00;99199.91;10094142;28;20138;-70
2021/11/27 18:44:13;;;;;;;36.60;22.70;;;;;;;3.82;100.00;99199.28;10112659;28;20058;-70
2021/11/27 18:49:10;;;;;;;34.75;22.27;;;;;;;3.89;100.00;99204.25;10097007;28;20053;-70
2021/11/27 18:54:07;;;;;;;41.30;25.02;;;;;;;3.88;100.00;99203.47;10082898;28;20125;-70
2021/11/27 18:59:03;;;;;;;31.52;19.95;;;;;;;3.80;100.00;99218.50;10085477;28;20705;-69
2021/11/27 19:04:00;;;;;;;32.55;20.70;;;;;;;3.82;100.00;99218.22;10071833;28;20121;-67
2021/11/27 19:08:58;;;;;;;32.30;20.83;;;;;;;3.79;100.00;99221.53;10074604;28;20070;-70
2021/11/27 19:13:55;;;;;;;36.15;21.10;;;;;;;3.80;100.00;99215.00;10079504;28;20719;-71
2021/11/27 19:18:53;;;;;;;35.45;20.73;;;;;;;3.83;100.00;99222.53;10078394;28;20051;-68
2021/11/27 19:23:50;;;;;;;31.15;20.40;;;;;;;3.81;100.00;99219.34;10096995;28;20067;-71
2021/11/27 19:28:46;;;;;;;30.88;17.70;;;;;;;3.80;100.00;99228.53;10070523;28;20141;-70
2021/11/27 19:33:44;;;;;;;31.20;19.33;;;;;;;3.90;100.00;99233.69;10079515;28;20476;-70
2021/11/27 19:38:41;;;;;;;31.33;19.52;;;;;;;3.88;100.00;99241.31;10075261;28;20039;-71
2021/11/27 19:43:38;;;;;;;28.45;17.35;;;;;;;3.88;100.00;99229.72;10084001;28;20702;-72
2021/11/27 19:48:35;;;;;;;28.45;18.67;;;;;;;3.90;100.00;99228.28;10105958;28;20054;-71
2021/11/27 19:53:31;;;;;;;30.60;19.08;;;;;;;3.87;100.00;99228.88;10099118;28;20093;-71
2021/11/27 19:58:28;;;;;;;30.92;19.58;;;;;;;3.84;100.00;99229.53;10088954;28;20182;-69
2021/11/27 20:03:28;;;;;;;35.65;21.15;;;;;;;3.86;100.00;99227.31;10093811;28;20078;-69
2021/11/27 20:08:24;;;;;;;31.08;20.48;;;;;;;3.82;100.00;99239.84;10093001;28;20078;-71
2021/11/27 20:13:22;;;;;;;28.58;19.40;;;;;;;3.82;100.00;99237.13;10089091;28;20054;-69
2021/11/27 20:18:20;;;;;;;29.80;19.52;;;;;;;3.79;100.00;99240.47;10074587;28;20051;-70
2021/11/27 20:23:16;;;;;;;27.27;17.52;;;;;;;3.82;100.00;99241.75;10082186;28;20051;-66
2021/11/27 20:28:13;;;;;;;29.30;18.40;;;;;;;3.78;100.00;99242.38;10084428;28;20145;-70
2021/11/27 20:33:09;;;;;;;29.98;19.95;;;;;;;3.74;100.00;99240.59;10073423;28;20075;-69
2021/11/27 20:38:07;;;;;;;41.50;23.90;;;;;;;3.79;100.00;99243.19;10084723;28;20110;-70
2021/11/27 20:43:04;;;;;;;35.63;21.60;;;;;;;3.68;100.00;99247.22;10069699;28;20062;-69
2021/11/27 20:48:02;;;;;;;28.40;18.35;;;;;;;3.68;100.00;99247.22;10081641;28;20524;-72
2021/11/27 20:52:59;;;;;;;28.73;17.88;;;;;;;3.68;100.00;99252.63;10080652;28;20765;-71
2021/11/27 20:58:00;;;;;;;30.52;19.10;;;;;;;3.61;100.00;99250.34;10089055;28;20495;-71
2021/11/27 21:02:56;;;;;;;15.48;10.93;;;;;;;3.55;100.00;99255.09;10078714;28;20109;-71
2021/11/27 21:07:53;;;;;;;16.30;11.60;;;;;;;3.51;100.00;99253.31;10081760;28;20051;-70
2021/11/27 21:12:50;;;;;;;13.55;9.20;;;;;;;3.41;100.00;99257.03;10091832;28;20055;-71
2021/11/27 21:17:46;;;;;;;15.35;10.77;;;;;;;3.40;100.00;99258.16;10088225;28;20109;-70
2021/11/27 21:22:44;;;;;;;16.42;10.57;;;;;;;3.35;100.00;99260.97;10084866;28;20046;-71
2021/11/27 21:27:41;;;;;;;17.75;11.98;;;;;;;3.25;100.00;99258.47;10085394;28;20038;-71
2021/11/27 21:32:39;;;;;;;17.17;11.07;;;;;;;3.22;100.00;99256.41;10083290;28;20039;-71
2021/11/27 21:37:36;;;;;;;13.20;8.77;;;;;;;3.27;100.00;99258.97;10098262;28;20047;-71
2021/11/27 21:42:32;;;;;;;17.88;11.02;;;;;;;3.27;100.00;99269.78;10084579;28;20109;-70
2021/11/27 21:47:30;;;;;;;17.17;11.35;;;;;;;3.34;100.00;99265.59;10075392;28;20125;-69
2021/11/27 21:52:28;;;;;;;19.40;12.65;;;;;;;3.27;100.00;99275.19;10085836;28;20081;-70
2021/11/27 21:57:24;;;;;;;17.77;11.63;;;;;;;3.30;100.00;99269.19;10079252;28;20494;-69
2021/11/27 22:02:26;;;;;;;16.85;11.52;;;;;;;3.25;100.00;99266.59;10080948;28;20213;-70
2021/11/27 22:07:23;;;;;;;21.20;13.68;;;;;;;3.35;100.00;99277.19;10084209;28;20035;-68
2021/11/27 22:12:20;;;;;;;21.52;14.75;;;;;;;3.33;100.00;99279.38;10080737;28;20083;-69
2021/11/27 22:17:16;;;;;;;23.48;14.82;;;;;;;3.27;100.00;99275.19;10111958;28;20071;-69
2021/11/27 22:22:13;;;;;;;25.73;16.42;;;;;;;3.23;100.00;99290.44;10086186;28;20066;-69
2021/11/27 22:27:09;;;;;;;24.15;16.77;;;;;;;3.16;100.00;99286.22;10090081;28;20093;-70
2021/11/27 22:32:07;;;;;;;25.08;14.73;;;;;;;3.11;100.00;99290.94;10094396;28;20117;-67
2021/11/27 22:37:04;;;;;;;20.63;14.27;;;;;;;3.09;100.00;99291.25;10103761;28;20067;-67